Disclaimer

Please do not use the information listed here in-flight or in-navigation, as they are not provided to us by the airports but are provided by volunteers, so they might be outdated.

Search


Regions


Airport information page

Radio informations:
Tower (TWR) - 118.1 MHz
BARRANQUILLA RDO - 3488 MHz
Ground (GND) - 121.9 MHz
Automatic Terminal Information Service (ATIS) - 113.7 MHz
BARRANQUILLA APP - 119.1 MHz

Airport informations:
Latitude: 10° 53' 22.52" N
Longitude: 074° 46' 50.95" W
Elevation: 98 feet - 30 meters
Operating hours: N/A
Operating agency: Military-civil joint use airport
Timezone: UTC-5
Fuel: Jet A1, without icing nhibitor.

100/130 MIL Spec, low lead, aviation gasoline (BLUE)

Runway information:
05/23 - 9842 x 148 feet< - >3000 x 45 meters

Recent METARs:
SKBQ 211000Z VRB02KT 9999 FEW015 26/26 A2980
SKBQ 211100Z 01007KT 8000 VCFG SCT012 SCT200 26/25 A2984
SKBQ 211100Z 01007KT 8000 VCFG SCT012 SCT200 26/25 A2984

Airport on the map: